createdAt,value
2022-08-29T00:00:20.689Z,62.43
2022-08-29T00:02:50.613Z,62.08
2022-08-29T00:05:20.233Z,62.63
2022-08-29T00:07:51.831Z,62.09
2022-08-29T00:10:20.317Z,61.54
2022-08-29T00:12:46.879Z,61.43
2022-08-29T00:15:14.691Z,61.30
2022-08-29T00:17:41.760Z,61.83
2022-08-29T00:20:11.034Z,62.57
2022-08-29T00:22:37.541Z,62.65
2022-08-29T00:25:06.327Z,62.53
2022-08-29T00:27:33.493Z,62.86
2022-08-29T00:30:00.898Z,62.27
2022-08-29T00:32:34.890Z,61.85
2022-08-29T00:35:03.338Z,61.99
2022-08-29T00:37:29.782Z,61.34
2022-08-29T00:39:57.392Z,61.06
2022-08-29T00:42:24.694Z,61.53
2022-08-29T00:44:51.749Z,62.20
2022-08-29T00:47:23.000Z,62.14
2022-08-29T00:49:55.564Z,62.55
2022-08-29T00:52:32.237Z,61.92
2022-08-29T00:54:59.673Z,61.53
2022-08-29T00:57:31.558Z,61.35
2022-08-29T00:59:58.914Z,60.75
2022-08-29T01:02:25.868Z,60.85
2022-08-29T01:04:52.426Z,61.12
2022-08-29T01:07:20.251Z,62.12
2022-08-29T01:09:47.247Z,62.96
2022-08-29T01:12:19.259Z,63.27
2022-08-29T01:14:51.645Z,63.26
2022-08-29T01:17:22.273Z,63.31
2022-08-29T01:20:19.258Z,62.91
2022-08-29T01:22:56.387Z,62.75
2022-08-29T01:25:26.132Z,62.85
2022-08-29T01:28:14.784Z,62.72
2022-08-29T01:31:37.437Z,63.09
2022-08-29T01:34:07.466Z,63.29
2022-08-29T01:36:47.145Z,62.45
2022-08-29T01:39:14.061Z,62.49
2022-08-29T01:41:42.170Z,63.12
2022-08-29T01:44:15.454Z,63.07
2022-08-29T01:46:42.000Z,63.51
2022-08-29T01:49:10.955Z,62.98
2022-08-29T01:51:38.301Z,63.40
2022-08-29T01:54:07.237Z,63.00
2022-08-29T01:56:36.915Z,63.24
2022-08-29T01:59:06.226Z,63.76
2022-08-29T02:01:41.995Z,63.74
2022-08-29T02:04:09.032Z,63.60
2022-08-29T02:06:36.319Z,63.46
2022-08-29T02:09:04.677Z,63.96
2022-08-29T02:11:32.359Z,63.73
2022-08-29T02:13:59.760Z,63.07
2022-08-29T02:16:28.372Z,63.45
2022-08-29T02:18:55.808Z,64.15
2022-08-29T02:21:25.018Z,64.42
2022-08-29T02:23:55.175Z,64.41
2022-08-29T02:26:22.585Z,65.38
2022-08-29T02:28:51.662Z,64.96
2022-08-29T02:31:20.077Z,65.16
2022-08-29T02:33:47.112Z,64.93
2022-08-29T02:36:14.075Z,65.09
2022-08-29T02:38:40.544Z,64.87
2022-08-29T02:41:11.229Z,65.35
2022-08-29T02:43:40.134Z,65.25
2022-08-29T02:46:07.172Z,65.70
2022-08-29T02:48:33.657Z,66.73
2022-08-29T02:51:00.258Z,65.91
2022-08-29T02:53:30.989Z,66.31
2022-08-29T02:55:58.268Z,66.32
2022-08-29T02:58:25.650Z,65.57
2022-08-29T03:01:42.798Z,65.91
2022-08-29T03:04:09.451Z,65.97
2022-08-29T03:06:35.864Z,65.90
2022-08-29T03:09:02.607Z,66.17
2022-08-29T03:11:29.570Z,65.80
2022-08-29T03:13:57.712Z,65.56
2022-08-29T03:16:26.734Z,65.96
2022-08-29T03:18:54.255Z,66.73
2022-08-29T03:21:24.889Z,66.97
2022-08-29T03:23:52.189Z,67.22
2022-08-29T03:26:19.592Z,66.46
2022-08-29T03:28:46.658Z,66.21
2022-08-29T03:31:13.390Z,66.78
2022-08-29T03:33:39.898Z,66.98
2022-08-29T03:36:14.305Z,66.51
2022-08-29T03:38:46.287Z,66.84
2022-08-29T03:41:23.252Z,66.23
2022-08-29T03:43:50.318Z,67.70
2022-08-29T03:46:16.817Z,67.59
2022-08-29T03:48:43.294Z,67.69
2022-08-29T03:51:10.261Z,67.87
2022-08-29T03:53:36.742Z,68.27
2022-08-29T03:56:04.211Z,68.07
2022-08-29T03:58:30.988Z,67.61
2022-08-29T04:00:57.474Z,66.43
2022-08-29T04:03:24.981Z,67.60
2022-08-29T04:05:58.828Z,67.56
2022-08-29T04:08:25.412Z,67.01
2022-08-29T04:10:51.865Z,66.76
2022-08-29T04:13:18.601Z,66.69
2022-08-29T04:15:45.114Z,66.22
2022-08-29T04:18:11.760Z,66.45
2022-08-29T04:20:41.746Z,67.34
2022-08-29T04:23:08.357Z,67.58
2022-08-29T04:25:37.995Z,66.86
2022-08-29T04:28:10.138Z,67.34
2022-08-29T04:30:38.154Z,67.63
2022-08-29T04:33:05.314Z,67.66
2022-08-29T04:35:31.919Z,67.93
2022-08-29T04:37:58.353Z,67.53
2022-08-29T04:40:24.938Z,68.35
2022-08-29T04:42:51.581Z,68.16
2022-08-29T04:45:20.978Z,67.74
2022-08-29T04:47:47.547Z,67.46
2022-08-29T04:50:18.178Z,67.50
2022-08-29T04:52:45.128Z,68.03
2022-08-29T04:55:16.147Z,68.01
2022-08-29T04:57:44.858Z,67.71
2022-08-29T05:00:16.747Z,68.50
2022-08-29T05:02:44.375Z,68.52
2022-08-29T05:05:13.882Z,68.97
2022-08-29T05:07:41.079Z,68.70
2022-08-29T05:10:11.743Z,68.20
2022-08-29T05:12:38.244Z,68.32
2022-08-29T05:15:06.429Z,68.22
2022-08-29T05:17:33.741Z,69.29
2022-08-29T05:20:00.975Z,69.80
2022-08-29T05:22:27.459Z,69.37
2022-08-29T05:24:53.952Z,68.62
2022-08-29T05:27:22.631Z,68.72
2022-08-29T05:29:51.425Z,68.92
2022-08-29T05:32:19.608Z,75.99
2022-08-29T05:34:47.096Z,75.51
2022-08-29T05:37:19.363Z,72.45
2022-08-29T05:39:47.257Z,68.12
2022-08-29T05:42:14.431Z,66.04
2022-08-29T05:44:40.895Z,64.04
2022-08-29T05:47:11.592Z,62.37
2022-08-29T05:49:40.613Z,61.43
2022-08-29T05:52:07.770Z,60.32
2022-08-29T05:54:36.959Z,59.47
2022-08-29T05:57:04.407Z,58.10
2022-08-29T05:59:30.833Z,57.69
2022-08-29T06:01:57.697Z,56.80
2022-08-29T06:04:24.221Z,55.95
2022-08-29T06:06:50.795Z,55.10
2022-08-29T06:09:17.745Z,54.21
2022-08-29T06:11:47.934Z,53.19
2022-08-29T06:14:15.660Z,52.73
2022-08-29T06:16:42.535Z,52.38
2022-08-29T06:19:09.354Z,52.01
2022-08-29T06:21:36.153Z,51.62
2022-08-29T06:24:03.994Z,50.89
2022-08-29T06:26:31.470Z,50.79
2022-08-29T06:28:58.182Z,49.96
2022-08-29T06:31:28.946Z,49.14
2022-08-29T06:33:57.948Z,46.33
2022-08-29T06:36:26.160Z,47.99
2022-08-29T06:38:55.468Z,46.83
2022-08-29T06:41:21.901Z,46.24
2022-08-29T06:43:48.408Z,45.41
2022-08-29T06:46:27.401Z,43.62
2022-08-29T06:48:56.030Z,43.97
2022-08-29T06:51:23.537Z,43.63
2022-08-29T06:53:50.300Z,43.00
2022-08-29T06:56:17.525Z,42.64
2022-08-29T06:58:45.188Z,43.80
2022-08-29T07:01:16.714Z,45.67
2022-08-29T07:03:43.348Z,45.50
2022-08-29T07:06:10.516Z,46.44
2022-08-29T07:08:40.902Z,46.17
2022-08-29T07:11:10.992Z,46.85
2022-08-29T07:13:37.531Z,46.31
2022-08-29T07:16:08.425Z,46.58
2022-08-29T07:18:35.580Z,47.42
2022-08-29T07:21:09.162Z,48.22
2022-08-29T07:23:36.268Z,47.71
2022-08-29T07:26:20.869Z,48.03
2022-08-29T07:28:52.299Z,48.04
2022-08-29T07:31:18.970Z,47.49
2022-08-29T07:33:45.651Z,47.71
2022-08-29T07:36:12.784Z,47.70
2022-08-29T07:38:39.516Z,47.82
2022-08-29T07:41:14.281Z,47.89
2022-08-29T07:43:42.828Z,47.14
2022-08-29T07:46:14.948Z,46.80
2022-08-29T07:48:42.628Z,47.45
2022-08-29T07:51:14.830Z,47.20
2022-08-29T07:53:42.032Z,46.19
2022-08-29T07:56:12.256Z,46.08
2022-08-29T07:58:39.536Z,46.58
2022-08-29T08:01:06.761Z,46.64
2022-08-29T08:03:34.355Z,46.09
2022-08-29T08:06:03.896Z,46.16
2022-08-29T08:08:33.607Z,46.66
2022-08-29T08:11:00.096Z,46.96
2022-08-29T08:13:27.965Z,47.36
2022-08-29T08:15:55.443Z,47.22
2022-08-29T08:18:22.456Z,47.57
2022-08-29T08:20:48.915Z,47.12
2022-08-29T08:23:16.893Z,46.65
2022-08-29T08:25:44.754Z,46.22
2022-08-29T08:28:15.401Z,46.41
2022-08-29T08:30:42.169Z,45.88
2022-08-29T08:33:09.929Z,44.94
2022-08-29T08:35:41.928Z,45.54
2022-08-29T08:38:09.145Z,44.81
2022-08-29T08:40:43.850Z,43.92
2022-08-29T08:43:19.240Z,43.64
2022-08-29T08:45:53.869Z,43.15
2022-08-29T08:48:22.721Z,42.61
2022-08-29T08:51:03.427Z,43.04
2022-08-29T08:53:39.833Z,42.30
2022-08-29T08:56:19.775Z,41.42
2022-08-29T08:58:54.615Z,40.50
2022-08-29T09:01:29.176Z,40.20
2022-08-29T09:04:14.366Z,40.09
2022-08-29T09:06:53.322Z,40.31
2022-08-29T09:09:44.336Z,41.59
2022-08-29T09:12:30.091Z,42.97
2022-08-29T09:15:22.574Z,42.25
2022-08-29T09:18:13.629Z,41.57
2022-08-29T09:20:41.396Z,41.26
2022-08-29T09:23:19.259Z,40.60
2022-08-29T09:25:47.223Z,40.59
2022-08-29T09:28:13.774Z,39.78
2022-08-29T09:30:42.962Z,38.46
2022-08-29T09:33:13.016Z,38.34
2022-08-29T09:35:44.584Z,39.44
2022-08-29T09:38:17.000Z,39.72
2022-08-29T09:40:49.388Z,39.24
2022-08-29T09:43:39.330Z,39.23
2022-08-29T09:46:18.981Z,39.95
2022-08-29T09:48:48.794Z,39.92
2022-08-29T09:51:23.387Z,39.83
2022-08-29T09:53:52.075Z,39.09
2022-08-29T09:56:27.887Z,39.71
2022-08-29T09:59:03.629Z,39.02
2022-08-29T10:01:32.315Z,38.69
2022-08-29T10:04:06.550Z,38.71
2022-08-29T10:06:44.333Z,39.02
2022-08-29T10:09:24.778Z,37.74
2022-08-29T10:12:03.357Z,37.93
2022-08-29T10:14:36.038Z,37.19
2022-08-29T10:17:45.328Z,37.95
2022-08-29T10:20:11.976Z,36.59
2022-08-29T10:22:44.558Z,37.10
2022-08-29T10:25:25.595Z,37.03
2022-08-29T10:28:24.220Z,36.67
2022-08-29T10:31:09.172Z,36.53
2022-08-29T10:34:18.193Z,36.99
2022-08-29T10:36:54.523Z,37.14
2022-08-29T10:39:47.714Z,38.14
2022-08-29T10:42:19.270Z,38.26
2022-08-29T10:45:22.744Z,38.98
2022-08-29T10:48:00.760Z,37.61
2022-08-29T10:51:06.567Z,38.88
2022-08-29T10:53:43.723Z,39.00
2022-08-29T10:56:22.779Z,39.11
2022-08-29T10:59:14.104Z,38.97
2022-08-29T11:01:46.983Z,37.83
2022-08-29T11:04:22.471Z,37.15
2022-08-29T11:07:06.274Z,36.21
2022-08-29T11:09:42.069Z,35.95
2022-08-29T11:12:30.342Z,36.17
2022-08-29T11:15:08.012Z,36.05
2022-08-29T11:17:40.760Z,35.28
2022-08-29T11:20:19.570Z,36.23
2022-08-29T11:22:54.845Z,35.75
2022-08-29T11:25:21.875Z,36.34
2022-08-29T11:28:00.412Z,37.26
2022-08-29T11:30:53.154Z,37.13
2022-08-29T11:33:46.165Z,36.82
2022-08-29T11:36:43.060Z,37.37
2022-08-29T11:39:34.070Z,36.43
2022-08-29T11:42:06.272Z,36.11
2022-08-29T11:44:40.996Z,35.88
2022-08-29T11:47:40.788Z,36.22
2022-08-29T11:50:16.959Z,36.16
2022-08-29T11:53:05.739Z,36.17
2022-08-29T11:55:40.190Z,36.05
2022-08-29T11:58:15.606Z,36.01
2022-08-29T12:00:56.376Z,35.30
2022-08-29T12:03:35.493Z,35.16
2022-08-29T12:06:17.991Z,34.68
2022-08-29T12:09:13.797Z,35.20
2022-08-29T12:11:59.171Z,34.92
2022-08-29T12:14:37.509Z,34.45
2022-08-29T12:17:08.752Z,34.63
2022-08-29T12:19:54.865Z,34.85
2022-08-29T12:25:28.103Z,35.00
2022-08-29T12:28:17.896Z,35.23
2022-08-29T12:30:48.827Z,34.99
2022-08-29T12:33:54.853Z,35.00
2022-08-29T12:36:30.164Z,35.30
2022-08-29T12:39:21.392Z,34.58
2022-08-29T12:42:05.874Z,34.64
2022-08-29T12:44:42.825Z,35.11
2022-08-29T12:47:13.269Z,34.94
2022-08-29T12:49:53.049Z,34.58
2022-08-29T12:52:25.520Z,34.15
2022-08-29T12:54:56.308Z,34.75
2022-08-29T12:57:34.445Z,34.68
2022-08-29T13:00:04.100Z,34.76
2022-08-29T13:02:34.976Z,34.76
2022-08-29T13:05:04.951Z,34.98
2022-08-29T13:07:31.503Z,34.44
2022-08-29T13:10:00.531Z,34.15
2022-08-29T13:12:32.762Z,33.84
2022-08-29T13:15:03.973Z,34.49
2022-08-29T13:17:35.207Z,34.92
2022-08-29T13:20:42.779Z,34.28
2022-08-29T13:23:12.421Z,34.06
2022-08-29T13:25:58.360Z,33.97
2022-08-29T13:28:30.574Z,33.89
2022-08-29T13:31:08.902Z,33.60
2022-08-29T13:33:36.299Z,33.76
2022-08-29T13:36:41.113Z,33.50
2022-08-29T13:39:26.352Z,33.50
2022-08-29T13:42:01.834Z,33.63
2022-08-29T13:44:33.213Z,33.37
2022-08-29T13:47:01.931Z,33.38
2022-08-29T13:49:32.182Z,33.55
2022-08-29T13:52:00.005Z,33.89
2022-08-29T13:54:31.244Z,33.49
2022-08-29T13:56:58.147Z,33.43
2022-08-29T13:59:27.446Z,33.09
2022-08-29T14:02:11.042Z,32.88
2022-08-29T14:04:40.707Z,33.51
2022-08-29T14:07:11.863Z,32.87
2022-08-29T14:09:41.816Z,32.36
2022-08-29T14:12:09.016Z,33.06
2022-08-29T14:14:35.480Z,32.76
2022-08-29T14:17:02.162Z,32.29
2022-08-29T14:19:29.553Z,32.63
2022-08-29T14:21:59.093Z,32.50
2022-08-29T14:24:29.103Z,32.17
2022-08-29T14:27:02.064Z,32.11
2022-08-29T14:29:32.946Z,32.89
2022-08-29T14:32:02.892Z,32.54
2022-08-29T14:34:32.605Z,32.76
2022-08-29T14:37:00.678Z,32.50
2022-08-29T14:39:27.542Z,33.03
2022-08-29T14:41:54.901Z,32.82
2022-08-29T14:44:24.536Z,32.74
2022-08-29T14:46:51.698Z,32.76
2022-08-29T14:49:18.993Z,32.92
2022-08-29T14:51:45.808Z,32.77
2022-08-29T14:54:13.079Z,32.99
2022-08-29T14:56:49.942Z,32.73
2022-08-29T14:59:18.696Z,32.71
2022-08-29T15:01:48.672Z,32.52
2022-08-29T15:04:30.396Z,33.36
2022-08-29T15:07:05.548Z,32.79
2022-08-29T15:09:32.054Z,32.89
2022-08-29T15:11:58.596Z,33.05
2022-08-29T15:14:25.403Z,34.03
2022-08-29T15:16:51.875Z,33.99
2022-08-29T15:22:05.639Z,34.49
2022-08-29T15:24:32.551Z,34.72
2022-08-29T15:26:59.562Z,34.44
2022-08-29T15:29:26.223Z,34.51
2022-08-29T15:31:52.704Z,34.80
2022-08-29T15:34:19.211Z,34.36
2022-08-29T15:36:45.751Z,34.29
2022-08-29T15:39:13.138Z,34.28
2022-08-29T15:41:39.751Z,34.93
2022-08-29T15:44:06.439Z,34.93
2022-08-29T15:46:33.929Z,34.09
2022-08-29T15:49:06.967Z,34.52
2022-08-29T15:51:34.605Z,34.96
2022-08-29T15:54:01.262Z,34.16
2022-08-29T15:56:34.837Z,34.95
2022-08-29T15:59:06.931Z,34.54
2022-08-29T16:01:46.548Z,34.74
2022-08-29T16:04:15.354Z,35.00
2022-08-29T16:06:42.112Z,35.20
2022-08-29T16:09:15.541Z,34.96
2022-08-29T16:11:44.749Z,35.19
2022-08-29T16:16:58.410Z,35.16
2022-08-29T16:19:24.997Z,35.12
2022-08-29T16:21:51.463Z,34.86
2022-08-29T16:24:18.391Z,35.18
2022-08-29T16:26:45.934Z,35.46
2022-08-29T16:29:12.998Z,35.33
2022-08-29T16:31:39.829Z,34.99
2022-08-29T16:34:06.480Z,35.33
2022-08-29T16:36:33.082Z,35.53
2022-08-29T16:38:59.695Z,35.29
2022-08-29T16:41:27.429Z,35.64
2022-08-29T16:43:55.103Z,35.83
2022-08-29T16:46:27.234Z,35.69
2022-08-29T16:48:58.159Z,35.43
2022-08-29T16:51:27.068Z,36.00
2022-08-29T16:53:53.996Z,35.84
2022-08-29T16:56:20.888Z,35.81
2022-08-29T16:58:59.963Z,36.16
2022-08-29T17:01:29.722Z,36.18
2022-08-29T17:03:56.754Z,36.42
2022-08-29T17:06:23.263Z,36.30
2022-08-29T17:08:50.001Z,36.49
2022-08-29T17:11:18.810Z,36.18
2022-08-29T17:13:45.338Z,36.52
2022-08-29T17:16:11.815Z,36.73
2022-08-29T17:18:38.949Z,36.54
2022-08-29T17:21:06.312Z,36.71
2022-08-29T17:23:35.703Z,36.82
2022-08-29T17:26:06.531Z,36.73
2022-08-29T17:28:33.721Z,36.72
2022-08-29T17:31:00.276Z,36.73
2022-08-29T17:33:27.794Z,36.84
2022-08-29T17:35:54.560Z,36.70
2022-08-29T17:38:21.074Z,36.81
2022-08-29T17:40:49.097Z,37.02
2022-08-29T17:43:18.658Z,36.90
2022-08-29T17:45:45.931Z,37.19
2022-08-29T17:48:12.454Z,37.02
2022-08-29T17:50:40.251Z,37.13
2022-08-29T17:53:06.751Z,37.43
2022-08-29T17:55:33.256Z,37.65
2022-08-29T17:57:59.894Z,37.58
2022-08-29T18:00:26.642Z,37.74
2022-08-29T18:02:53.173Z,37.50
2022-08-29T18:05:19.812Z,37.51
2022-08-29T18:07:46.363Z,37.51
2022-08-29T18:10:15.686Z,38.09
2022-08-29T18:12:42.223Z,38.33
2022-08-29T18:15:09.800Z,38.97
2022-08-29T18:17:36.941Z,39.20
2022-08-29T18:20:05.262Z,39.76
2022-08-29T18:22:31.754Z,39.75
2022-08-29T18:24:58.228Z,40.25
2022-08-29T18:27:26.071Z,40.40
2022-08-29T18:29:53.061Z,40.56
2022-08-29T18:32:20.347Z,39.96
2022-08-29T18:34:46.979Z,39.97
2022-08-29T18:37:14.335Z,40.25
2022-08-29T18:39:41.335Z,40.33
2022-08-29T18:42:20.316Z,40.78
2022-08-29T18:44:54.735Z,40.89
2022-08-29T18:47:21.360Z,40.89
2022-08-29T18:50:06.211Z,41.34
2022-08-29T18:52:34.978Z,43.09
2022-08-29T18:55:01.533Z,42.91
2022-08-29T18:57:28.039Z,41.38
2022-08-29T18:59:54.515Z,42.39
2022-08-29T19:02:21.144Z,42.70
2022-08-29T19:04:49.410Z,41.83
2022-08-29T19:07:15.978Z,44.26
2022-08-29T19:09:52.966Z,42.75
2022-08-29T19:12:19.627Z,44.30
2022-08-29T19:14:46.359Z,43.61
2022-08-29T19:17:13.033Z,43.74
2022-08-29T19:19:58.365Z,42.21
2022-08-29T19:22:25.721Z,42.68
2022-08-29T19:24:52.347Z,42.26
2022-08-29T19:27:41.866Z,43.02
2022-08-29T19:30:06.986Z,44.73
2022-08-29T19:32:34.078Z,45.57
2022-08-29T19:35:01.423Z,46.33
2022-08-29T19:37:28.234Z,46.31
2022-08-29T19:39:55.740Z,47.70
2022-08-29T19:42:22.496Z,46.84
2022-08-29T19:44:48.899Z,48.18
2022-08-29T19:47:15.490Z,46.93
2022-08-29T19:49:45.309Z,47.26
2022-08-29T19:52:12.099Z,47.93
2022-08-29T19:54:38.588Z,47.18
2022-08-29T19:57:08.463Z,47.78
2022-08-29T19:59:34.946Z,48.05
2022-08-29T20:02:01.720Z,47.87
2022-08-29T20:04:28.241Z,48.91
2022-08-29T20:06:59.612Z,48.70
2022-08-29T20:09:27.063Z,47.72
2022-08-29T20:11:53.931Z,48.45
2022-08-29T20:14:20.414Z,48.24
2022-08-29T20:16:46.966Z,49.48
2022-08-29T20:19:13.523Z,49.83
2022-08-29T20:21:40.849Z,49.59
2022-08-29T20:24:07.378Z,49.26
2022-08-29T20:26:35.942Z,49.18
2022-08-29T20:29:05.936Z,48.82
2022-08-29T20:31:34.368Z,48.10
2022-08-29T20:34:01.079Z,48.36
2022-08-29T20:36:46.786Z,47.50
2022-08-29T20:39:16.672Z,45.86
2022-08-29T20:41:51.251Z,45.82
2022-08-29T20:44:20.320Z,47.46
2022-08-29T20:46:47.987Z,48.34
2022-08-29T20:49:17.986Z,49.38
2022-08-29T20:51:44.546Z,49.36
2022-08-29T20:54:12.919Z,49.27
2022-08-29T20:56:39.932Z,48.73
2022-08-29T20:59:07.156Z,46.66
2022-08-29T21:01:35.795Z,48.87
2022-08-29T21:04:22.834Z,50.17
2022-08-29T21:07:04.782Z,49.54
2022-08-29T21:09:32.025Z,49.80
2022-08-29T21:11:58.768Z,49.97
2022-08-29T21:14:27.195Z,50.48
2022-08-29T21:16:56.858Z,50.57
2022-08-29T21:19:28.700Z,50.90
2022-08-29T21:21:57.295Z,50.83
2022-08-29T21:24:24.908Z,50.61
2022-08-29T21:26:51.465Z,50.92
2022-08-29T21:29:20.074Z,51.62
2022-08-29T21:31:47.953Z,50.79
2022-08-29T21:34:14.753Z,51.61
2022-08-29T21:36:41.784Z,51.24
2022-08-29T21:39:11.057Z,51.40
2022-08-29T21:41:41.520Z,51.46
2022-08-29T21:44:09.036Z,51.30
2022-08-29T21:46:40.151Z,51.65
2022-08-29T21:49:06.984Z,51.27
2022-08-29T21:51:34.786Z,52.39
2022-08-29T21:54:01.941Z,51.84
2022-08-29T21:56:31.362Z,51.79
2022-08-29T21:58:58.561Z,51.85
2022-08-29T22:01:30.051Z,52.15
2022-08-29T22:03:58.799Z,51.94
2022-08-29T22:06:27.732Z,51.86
2022-08-29T22:08:54.936Z,52.49
2022-08-29T22:11:25.378Z,52.23
2022-08-29T22:14:05.606Z,52.70
2022-08-29T22:16:32.205Z,53.41
2022-08-29T22:19:06.688Z,53.90
2022-08-29T22:21:39.812Z,54.19
2022-08-29T22:24:07.357Z,54.03
2022-08-29T22:26:34.927Z,53.63
2022-08-29T22:29:02.033Z,54.47
2022-08-29T22:31:28.616Z,53.85
2022-08-29T22:33:55.163Z,54.17
2022-08-29T22:36:21.725Z,54.14
2022-08-29T22:38:49.588Z,54.48
2022-08-29T22:41:22.891Z,54.04
2022-08-29T22:44:04.706Z,54.54
2022-08-29T22:46:37.692Z,54.41
2022-08-29T22:49:04.282Z,54.42
2022-08-29T22:51:30.705Z,55.07
2022-08-29T22:54:16.178Z,55.44
2022-08-29T22:56:44.974Z,55.52
2022-08-29T22:59:12.905Z,55.90
2022-08-29T23:01:43.512Z,56.02
2022-08-29T23:04:10.949Z,55.96
2022-08-29T23:06:37.491Z,55.99
2022-08-29T23:09:05.087Z,55.43
2022-08-29T23:11:31.524Z,55.25
2022-08-29T23:13:58.101Z,55.49
2022-08-29T23:16:25.645Z,55.34
2022-08-29T23:18:52.146Z,55.35
2022-08-29T23:21:19.834Z,55.34
2022-08-29T23:23:46.583Z,55.18
2022-08-29T23:26:13.169Z,55.20
2022-08-29T23:28:40.284Z,56.04
2022-08-29T23:31:06.987Z,55.99
2022-08-29T23:33:33.586Z,55.93
2022-08-29T23:36:00.051Z,57.03
2022-08-29T23:38:26.683Z,57.38
2022-08-29T23:40:57.184Z,56.38
2022-08-29T23:43:24.686Z,56.88
2022-08-29T23:45:51.789Z,56.55
2022-08-29T23:48:18.389Z,56.93
2022-08-29T23:50:50.906Z,56.91
2022-08-29T23:53:17.662Z,56.29
2022-08-29T23:55:44.511Z,56.93
2022-08-29T23:58:11.085Z,57.23
